Time;durP1;ratioP1;P1;durP2;ratioP2;P2;SDS_P1;SDS_P2;PMS_P1;PMS_P2;Temp;Humidity;BMP_temperature;BMP_pressure;BME280_temperature;BME280_humidity;BME280_pressure;Samples;Min_cycle;Max_cycle;Signal;HPM_P1;HPM_P2
2022/03/12 00:00:36;;;;;;;8.80;4.38;;;;;;;;;;5023882;28;20068;-66
2022/03/12 00:03:02;;;;;;;10.50;5.30;;;;;;;;;;5023673;28;20061;-65
2022/03/12 00:05:30;;;;;;;7.22;4.53;;;;;;;;;;5023638;28;20065;-66
2022/03/12 00:07:55;;;;;;;7.70;4.82;;;;;;;;;;5022927;28;20041;-66
2022/03/12 00:10:22;;;;;;;7.85;4.85;;;;;;;;;;5023707;28;20026;-66
2022/03/12 00:12:50;;;;;;;7.38;4.60;;;;;;;;;;5023650;28;20065;-64
2022/03/12 00:15:15;;;;;;;9.10;4.90;;;;;;;;;;5023700;28;20071;-66
2022/03/12 00:17:46;;;;;;;6.40;4.22;;;;;;;;;;5022258;28;20044;-66
2022/03/12 00:20:16;;;;;;;8.50;4.78;;;;;;;;;;5023642;28;20102;-66
2022/03/12 00:22:47;;;;;;;7.38;4.60;;;;;;;;;;5023224;28;20037;-65
2022/03/12 00:25:19;;;;;;;7.93;4.47;;;;;;;;;;5023558;28;20041;-66
2022/03/12 00:27:45;;;;;;;6.60;4.40;;;;;;;;;;5023521;28;20033;-65
2022/03/12 00:30:17;;;;;;;6.68;4.22;;;;;;;;;;5021092;28;20037;-66
2022/03/12 00:32:43;;;;;;;10.60;5.03;;;;;;;;;;5023191;28;20466;-66
2022/03/12 00:35:11;;;;;;;10.98;5.57;;;;;;;;;;5023299;28;20037;-64
2022/03/12 00:37:37;;;;;;;12.65;4.75;;;;;;;;;;5023651;28;20044;-66
2022/03/12 00:40:04;;;;;;;8.80;4.40;;;;;;;;;;5022642;28;20045;-65
2022/03/12 00:42:31;;;;;;;9.63;4.57;;;;;;;;;;5023053;28;20052;-67
2022/03/12 00:44:56;;;;;;;9.48;5.55;;;;;;;;;;5023627;28;20053;-65
2022/03/12 00:47:22;;;;;;;8.77;4.43;;;;;;;;;;5022991;28;20479;-66
2022/03/12 00:49:49;;;;;;;10.52;5.18;;;;;;;;;;5023130;28;20102;-66
2022/03/12 00:52:16;;;;;;;9.27;4.70;;;;;;;;;;5022739;28;20098;-66
2022/03/12 00:54:42;;;;;;;8.70;5.18;;;;;;;;;;5023305;28;20128;-65
2022/03/12 00:57:10;;;;;;;7.95;4.20;;;;;;;;;;5023349;28;20113;-66
2022/03/12 00:59:38;;;;;;;7.50;4.43;;;;;;;;;;5023541;28;20025;-66
2022/03/12 01:02:04;;;;;;;6.40;4.55;;;;;;;;;;5021938;28;20064;-65
2022/03/12 01:04:29;;;;;;;11.10;5.13;;;;;;;;;;5022470;28;20072;-65
2022/03/12 01:06:55;;;;;;;8.75;4.53;;;;;;;;;;5022801;28;20041;-65
2022/03/12 01:09:20;;;;;;;8.10;4.88;;;;;;;;;;5022585;28;20033;-65
2022/03/12 01:11:46;;;;;;;8.40;4.88;;;;;;;;;;5022498;28;20454;-66
2022/03/12 01:14:11;;;;;;;9.20;5.18;;;;;;;;;;5021363;28;20033;-66
2022/03/12 01:16:36;;;;;;;7.55;4.57;;;;;;;;;;5022513;28;20037;-65
2022/03/12 01:19:02;;;;;;;7.25;4.45;;;;;;;;;;5022689;28;20025;-65
2022/03/12 01:21:29;;;;;;;19.73;5.25;;;;;;;;;;5022605;28;20486;-66
2022/03/12 01:23:54;;;;;;;13.05;4.60;;;;;;;;;;5021743;28;20048;-66
2022/03/12 01:26:22;;;;;;;11.32;6.05;;;;;;;;;;5022005;28;20076;-65
2022/03/12 01:28:48;;;;;;;7.00;4.88;;;;;;;;;;5022215;28;20044;-65
2022/03/12 01:31:15;;;;;;;9.75;4.70;;;;;;;;;;5022051;28;20033;-65
2022/03/12 01:33:40;;;;;;;8.43;4.97;;;;;;;;;;5022520;28;20048;-66
2022/03/12 01:36:06;;;;;;;8.30;4.07;;;;;;;;;;5020921;28;20037;-66
2022/03/12 01:38:46;;;;;;;6.65;4.22;;;;;;;;;;5022393;28;20117;-65
2022/03/12 01:41:12;;;;;;;7.13;4.22;;;;;;;;;;5022003;28;20048;-65
2022/03/12 01:43:37;;;;;;;9.13;4.28;;;;;;;;;;5021742;28;20030;-65
2022/03/12 01:46:09;;;;;;;9.98;4.35;;;;;;;;;;5021194;28;20067;-66
2022/03/12 01:48:36;;;;;;;8.95;4.63;;;;;;;;;;5021806;28;20133;-64
2022/03/12 01:51:02;;;;;;;8.18;4.65;;;;;;;;;;5022361;28;20385;-65
2022/03/12 01:53:27;;;;;;;9.82;5.28;;;;;;;;;;5021791;28;20490;-66
2022/03/12 01:55:54;;;;;;;9.50;4.28;;;;;;;;;;5022131;28;20538;-65
2022/03/12 01:58:19;;;;;;;9.70;4.57;;;;;;;;;;5021072;28;20080;-65
2022/03/12 02:00:48;;;;;;;7.55;5.25;;;;;;;;;;5020442;28;20122;-64
2022/03/12 02:03:16;;;;;;;10.23;5.32;;;;;;;;;;5017838;28;20033;-64
2022/03/12 02:05:43;;;;;;;8.55;4.65;;;;;;;;;;5022008;28;20124;-65
2022/03/12 02:08:13;;;;;;;7.78;4.38;;;;;;;;;;5021235;28;20474;-66
2022/03/12 02:10:40;;;;;;;11.80;4.85;;;;;;;;;;5021615;28;20033;-65
2022/03/12 02:13:05;;;;;;;22.80;12.63;;;;;;;;;;5021555;28;20045;-64
2022/03/12 02:15:32;;;;;;;9.18;4.90;;;;;;;;;;5021531;28;20083;-66
2022/03/12 02:17:57;;;;;;;7.32;4.07;;;;;;;;;;5021264;28;20071;-66
2022/03/12 02:20:23;;;;;;;10.07;5.47;;;;;;;;;;5020921;28;20032;-66
2022/03/12 02:22:55;;;;;;;8.98;5.25;;;;;;;;;;5021291;28;20548;-66
2022/03/12 02:25:27;;;;;;;8.20;4.72;;;;;;;;;;5021541;28;20033;-65
2022/03/12 02:27:54;;;;;;;9.23;4.75;;;;;;;;;;5021357;28;20033;-66
2022/03/12 02:30:20;;;;;;;9.35;4.72;;;;;;;;;;5020274;28;20158;-66
2022/03/12 02:32:47;;;;;;;9.20;4.95;;;;;;;;;;5019948;28;20124;-65
2022/03/12 02:35:13;;;;;;;8.43;4.53;;;;;;;;;;5021274;28;20048;-67
2022/03/12 02:37:45;;;;;;;7.63;5.18;;;;;;;;;;5020785;28;20095;-65
2022/03/12 02:40:12;;;;;;;7.30;4.85;;;;;;;;;;5020612;28;20582;-66
2022/03/12 02:42:39;;;;;;;8.15;4.95;;;;;;;;;;5020607;28;20115;-65
2022/03/12 02:45:08;;;;;;;8.38;4.90;;;;;;;;;;5021448;28;20060;-65
2022/03/12 02:47:35;;;;;;;7.25;4.43;;;;;;;;;;5020888;28;20550;-65
2022/03/12 02:50:07;;;;;;;8.38;4.88;;;;;;;;;;5020751;28;20064;-66
2022/03/12 02:52:40;;;;;;;8.30;5.18;;;;;;;;;;5019347;28;20076;-66
2022/03/12 02:55:06;;;;;;;9.73;5.47;;;;;;;;;;5020781;28;20080;-66
2022/03/12 02:57:31;;;;;;;6.95;4.32;;;;;;;;;;5020548;28;20136;-65
2022/03/12 03:00:08;;;;;;;8.77;4.93;;;;;;;;;;5021021;28;20060;-65
2022/03/12 03:02:39;;;;;;;8.45;4.47;;;;;;;;;;5019660;28;20033;-66
2022/03/12 03:07:59;;;;;;;14.27;4.88;;;;;;;;;;5020833;28;20033;-65
2022/03/12 03:10:35;;;;;;;12.32;5.93;;;;;;;;;;5021143;28;20099;-66
2022/03/12 03:13:27;;;;;;;11.18;5.75;;;;;;;;;;5020881;28;20037;-66
2022/03/12 03:16:21;;;;;;;9.70;4.47;;;;;;;;;;5014994;28;20071;-65
2022/03/12 03:18:53;;;;;;;7.82;4.82;;;;;;;;;;5016842;28;20478;-65
2022/03/12 03:21:22;;;;;;;8.43;5.20;;;;;;;;;;5020892;28;20395;-65
2022/03/12 03:23:47;;;;;;;9.95;4.97;;;;;;;;;;5021076;28;20107;-66
2022/03/12 03:26:39;;;;;;;7.20;4.60;;;;;;;;;;5019829;28;20041;-66
2022/03/12 03:29:08;;;;;;;8.27;5.38;;;;;;;;;;5020662;28;20041;-66
2022/03/12 03:31:35;;;;;;;9.43;5.13;;;;;;;;;;5020853;28;20032;-66
2022/03/12 03:34:01;;;;;;;15.45;5.05;;;;;;;;;;5020744;28;20025;-65
2022/03/12 03:36:27;;;;;;;8.75;4.38;;;;;;;;;;5020128;28;20029;-66
2022/03/12 03:38:53;;;;;;;8.93;4.72;;;;;;;;;;5020439;28;20509;-65
2022/03/12 03:41:18;;;;;;;10.48;5.13;;;;;;;;;;5020521;28;20038;-67
2022/03/12 03:43:46;;;;;;;13.05;5.20;;;;;;;;;;5020413;28;20041;-66
2022/03/12 03:46:15;;;;;;;6.03;4.45;;;;;;;;;;5019814;28;20410;-65
2022/03/12 03:48:40;;;;;;;7.43;4.55;;;;;;;;;;5020474;28;20774;-66
2022/03/12 03:51:06;;;;;;;10.30;5.05;;;;;;;;;;5020240;28;20077;-66
2022/03/12 03:53:32;;;;;;;8.43;4.60;;;;;;;;;;5020515;28;20041;-65
2022/03/12 03:55:59;;;;;;;12.23;5.28;;;;;;;;;;5020341;28;20044;-66
2022/03/12 03:58:26;;;;;;;8.57;5.30;;;;;;;;;;5019953;28;20477;-65
2022/03/12 04:00:57;;;;;;;7.72;5.20;;;;;;;;;;5018554;28;20037;-66
2022/03/12 04:03:24;;;;;;;7.32;4.50;;;;;;;;;;5015841;28;20391;-65
2022/03/12 04:05:50;;;;;;;9.00;4.68;;;;;;;;;;5021191;28;20510;-66
2022/03/12 04:08:16;;;;;;;8.30;4.70;;;;;;;;;;5021235;28;20080;-66
2022/03/12 04:10:41;;;;;;;11.88;5.80;;;;;;;;;;5023600;28;20040;-66
2022/03/12 04:13:14;;;;;;;8.75;4.95;;;;;;;;;;5021027;28;20045;-66
2022/03/12 04:15:40;;;;;;;20.33;5.15;;;;;;;;;;5023852;28;20699;-66
2022/03/12 04:18:07;;;;;;;7.55;5.07;;;;;;;;;;5023747;28;20684;-65
2022/03/12 04:20:34;;;;;;;6.53;4.70;;;;;;;;;;5023033;28;20029;-66
2022/03/12 04:23:00;;;;;;;8.15;5.03;;;;;;;;;;5023346;28;20049;-65
2022/03/12 04:25:26;;;;;;;10.75;5.30;;;;;;;;;;5023774;28;20033;-66
2022/03/12 04:27:52;;;;;;;8.32;5.30;;;;;;;;;;5023111;28;20510;-66
2022/03/12 04:30:18;;;;;;;11.18;4.50;;;;;;;;;;5022677;28;20123;-64
2022/03/12 04:32:44;;;;;;;10.15;5.28;;;;;;;;;;5023576;28;20037;-65
2022/03/12 04:35:10;;;;;;;8.60;4.80;;;;;;;;;;5023048;28;20086;-66
2022/03/12 04:37:36;;;;;;;8.27;4.85;;;;;;;;;;5023574;28;20037;-65
2022/03/12 04:40:12;;;;;;;7.70;5.10;;;;;;;;;;5024198;28;20078;-64
2022/03/12 04:42:43;;;;;;;11.90;5.10;;;;;;;;;;5022592;28;20044;-64
2022/03/12 04:45:10;;;;;;;9.18;4.40;;;;;;;;;;5023062;28;20041;-65
2022/03/12 04:47:36;;;;;;;9.43;4.78;;;;;;;;;;5023206;28;20133;-66
2022/03/12 04:50:05;;;;;;;10.50;4.72;;;;;;;;;;5021378;28;20091;-66
2022/03/12 04:52:31;;;;;;;11.88;5.88;;;;;;;;;;5022225;28;20038;-66
2022/03/12 04:54:58;;;;;;;8.85;5.10;;;;;;;;;;5022535;28;20037;-66
2022/03/12 04:57:23;;;;;;;11.40;4.85;;;;;;;;;;5022688;28;20033;-67
2022/03/12 04:59:49;;;;;;;12.68;5.00;;;;;;;;;;5022707;28;20033;-66
2022/03/12 05:02:14;;;;;;;12.52;5.32;;;;;;;;;;5021958;28;20041;-66
2022/03/12 05:04:40;;;;;;;11.10;5.68;;;;;;;;;;5021688;28;20037;-66
2022/03/12 05:07:08;;;;;;;10.48;5.20;;;;;;;;;;5022624;28;20045;-67
2022/03/12 05:09:33;;;;;;;7.43;4.72;;;;;;;;;;5022766;28;20030;-66
2022/03/12 05:12:01;;;;;;;8.05;4.68;;;;;;;;;;5022926;28;20111;-67
2022/03/12 05:14:26;;;;;;;10.27;5.30;;;;;;;;;;5021379;28;20144;-65
2022/03/12 05:16:52;;;;;;;9.95;5.07;;;;;;;;;;5022081;28;20112;-67
2022/03/12 05:19:18;;;;;;;10.65;6.43;;;;;;;;;;5022618;28;20091;-67
2022/03/12 05:21:44;;;;;;;23.15;9.93;;;;;;;;;;5022241;28;20132;-67
2022/03/12 05:24:10;;;;;;;16.30;9.27;;;;;;;;;;5022473;28;20128;-65
2022/03/12 05:26:36;;;;;;;36.05;17.00;;;;;;;;;;5021581;28;20107;-65
2022/03/12 05:29:02;;;;;;;68.28;26.00;;;;;;;;;;5020713;28;20042;-66
2022/03/12 05:31:28;;;;;;;22.48;9.18;;;;;;;;;;5022404;28;20041;-66
2022/03/12 05:33:53;;;;;;;10.02;5.90;;;;;;;;;;5021738;28;20406;-65
2022/03/12 05:36:19;;;;;;;8.18;5.15;;;;;;;;;;5018965;28;20073;-65
2022/03/12 05:38:45;;;;;;;6.88;5.07;;;;;;;;;;5020345;28;20033;-66
2022/03/12 05:41:11;;;;;;;10.45;5.20;;;;;;;;;;5020837;28;20052;-65
2022/03/12 05:43:43;;;;;;;9.30;5.45;;;;;;;;;;5020558;28;20037;-65
2022/03/12 05:46:11;;;;;;;9.45;5.53;;;;;;;;;;5020143;28;20033;-65
2022/03/12 05:48:37;;;;;;;10.30;5.70;;;;;;;;;;5019892;28;20029;-64
2022/03/12 05:51:04;;;;;;;9.55;5.45;;;;;;;;;;5021308;28;20109;-65
2022/03/12 05:53:30;;;;;;;17.52;6.05;;;;;;;;;;5022065;28;20127;-65
2022/03/12 05:55:55;;;;;;;6.45;4.03;;;;;;;;;;5020505;28;20041;-65
2022/03/12 05:58:26;;;;;;;18.55;5.95;;;;;;;;;;5020242;28;20060;-66
2022/03/12 06:00:55;;;;;;;18.65;5.60;;;;;;;;;;5021750;28;20029;-64
2022/03/12 06:03:23;;;;;;;11.10;5.40;;;;;;;;;;5021729;28;20041;-66
2022/03/12 06:05:54;;;;;;;8.43;5.70;;;;;;;;;;5022014;28;20486;-65
2022/03/12 06:08:22;;;;;;;7.90;4.78;;;;;;;;;;5021525;28;20040;-65
2022/03/12 06:10:51;;;;;;;8.40;5.90;;;;;;;;;;5020495;28;20506;-64
2022/03/12 06:13:17;;;;;;;9.30;5.10;;;;;;;;;;5021491;28;20834;-65
2022/03/12 06:15:45;;;;;;;9.82;5.78;;;;;;;;;;5022145;28;20040;-65
2022/03/12 06:18:11;;;;;;;7.10;4.35;;;;;;;;;;5021562;28;20137;-64
2022/03/12 06:20:37;;;;;;;9.85;5.30;;;;;;;;;;5019691;28;20246;-64
2022/03/12 06:23:04;;;;;;;10.20;4.53;;;;;;;;;;5021391;28;20500;-65
2022/03/12 06:25:30;;;;;;;9.27;5.15;;;;;;;;;;5021310;28;20039;-66
2022/03/12 06:27:56;;;;;;;8.60;4.93;;;;;;;;;;5020830;28;20037;-65
2022/03/12 06:30:26;;;;;;;10.85;5.75;;;;;;;;;;5021079;28;20143;-65
2022/03/12 06:32:54;;;;;;;9.25;5.75;;;;;;;;;;5020328;28;20128;-64
2022/03/12 06:35:20;;;;;;;10.45;5.20;;;;;;;;;;5019611;28;20056;-66
2022/03/12 06:37:46;;;;;;;9.63;5.15;;;;;;;;;;5021290;28;20048;-65
2022/03/12 06:40:15;;;;;;;8.98;4.78;;;;;;;;;;5016490;28;20029;-65
2022/03/12 06:42:45;;;;;;;7.45;4.60;;;;;;;;;;5012168;28;20049;-65
2022/03/12 06:45:16;;;;;;;15.30;6.20;;;;;;;;;;5017816;28;20964;-65
2022/03/12 06:47:46;;;;;;;10.50;6.25;;;;;;;;;;5016956;28;20107;-64
2022/03/12 06:50:15;;;;;;;9.02;5.85;;;;;;;;;;5017902;28;20475;-64
2022/03/12 06:52:43;;;;;;;10.82;6.05;;;;;;;;;;5018868;28;20025;-65
2022/03/12 06:55:09;;;;;;;7.18;4.82;;;;;;;;;;5016832;28;20106;-63
2022/03/12 06:57:36;;;;;;;9.38;5.68;;;;;;;;;;5018930;28;20475;-65
2022/03/12 07:00:04;;;;;;;9.65;5.20;;;;;;;;;;5018829;28;20037;-65
2022/03/12 07:02:30;;;;;;;9.40;4.85;;;;;;;;;;5019211;28;20095;-66
2022/03/12 07:04:55;;;;;;;11.90;5.10;;;;;;;;;;5019083;28;20041;-66
2022/03/12 07:07:20;;;;;;;7.38;5.10;;;;;;;;;;5020028;28;20047;-65
2022/03/12 07:09:46;;;;;;;11.73;6.13;;;;;;;;;;5019952;28;20091;-65
2022/03/12 07:12:11;;;;;;;7.45;5.43;;;;;;;;;;5019600;28;20355;-65
2022/03/12 07:14:37;;;;;;;11.98;5.25;;;;;;;;;;5020187;28;20044;-65
2022/03/12 07:17:03;;;;;;;9.73;5.68;;;;;;;;;;5018474;28;20120;-65
2022/03/12 07:19:28;;;;;;;11.77;5.47;;;;;;;;;;5020308;28;20033;-66
2022/03/12 07:21:54;;;;;;;8.13;5.82;;;;;;;;;;5019626;28;20044;-64
2022/03/12 07:24:19;;;;;;;12.10;6.70;;;;;;;;;;5019824;28;20113;-64
2022/03/12 07:26:45;;;;;;;9.68;6.07;;;;;;;;;;5018477;28;20430;-63
2022/03/12 07:29:11;;;;;;;12.88;6.13;;;;;;;;;;5019610;28;20057;-64
2022/03/12 07:31:38;;;;;;;13.32;6.40;;;;;;;;;;5019577;28;20681;-64
2022/03/12 07:34:04;;;;;;;14.60;6.00;;;;;;;;;;5018942;28;20037;-65
2022/03/12 07:36:30;;;;;;;8.07;5.60;;;;;;;;;;5019843;28;20046;-64
2022/03/12 07:38:58;;;;;;;10.98;5.78;;;;;;;;;;5020203;28;20048;-64
2022/03/12 07:41:23;;;;;;;8.30;5.75;;;;;;;;;;5022949;28;20037;-64
2022/03/12 07:43:49;;;;;;;15.90;6.60;;;;;;;;;;5023202;28;20045;-64
2022/03/12 07:46:15;;;;;;;9.45;5.72;;;;;;;;;;5023109;28;20077;-63
2022/03/12 07:48:41;;;;;;;8.48;5.35;;;;;;;;;;5022732;28;20076;-65
2022/03/12 07:51:07;;;;;;;10.57;6.25;;;;;;;;;;5022623;28;20771;-64
2022/03/12 07:53:33;;;;;;;13.80;6.10;;;;;;;;;;5023147;28;20109;-65
2022/03/12 07:55:59;;;;;;;7.95;5.53;;;;;;;;;;5021619;28;20044;-64
2022/03/12 07:58:26;;;;;;;7.15;5.53;;;;;;;;;;5023259;28;20051;-64
2022/03/12 08:00:56;;;;;;;8.68;5.18;;;;;;;;;;5022219;28;20095;-65
2022/03/12 08:03:23;;;;;;;8.60;5.53;;;;;;;;;;5022268;28;20564;-64
2022/03/12 08:05:50;;;;;;;7.85;5.72;;;;;;;;;;5022152;28;20040;-65
2022/03/12 08:08:17;;;;;;;10.02;5.85;;;;;;;;;;5022941;28;20041;-65
2022/03/12 08:13:29;;;;;;;16.52;6.18;;;;;;;;;;5015278;28;20029;-65
2022/03/12 08:15:55;;;;;;;11.57;6.45;;;;;;;;;;5017642;28;20037;-65
2022/03/12 08:18:22;;;;;;;8.77;6.30;;;;;;;;;;5021131;28;20037;-65
2022/03/12 08:20:48;;;;;;;10.10;6.25;;;;;;;;;;5021750;28;20581;-65
2022/03/12 08:23:15;;;;;;;8.07;5.97;;;;;;;;;;5021646;28;20037;-65
2022/03/12 08:25:42;;;;;;;13.82;6.85;;;;;;;;;;5021508;28;20183;-65
2022/03/12 08:28:09;;;;;;;9.25;6.10;;;;;;;;;;5022139;28;20063;-64
2022/03/12 08:30:35;;;;;;;9.63;5.82;;;;;;;;;;5021650;28;20037;-65
2022/03/12 08:33:03;;;;;;;12.80;6.45;;;;;;;;;;5020851;28;20033;-65
2022/03/12 08:35:29;;;;;;;10.63;6.43;;;;;;;;;;5022439;28;20044;-66
2022/03/12 08:37:55;;;;;;;10.68;7.07;;;;;;;;;;5022606;28;20087;-66
2022/03/12 08:40:21;;;;;;;13.65;6.80;;;;;;;;;;5022689;28;20029;-66
2022/03/12 08:42:46;;;;;;;7.97;5.88;;;;;;;;;;5021756;28;20059;-66
2022/03/12 08:45:12;;;;;;;10.88;6.30;;;;;;;;;;5019495;28;20399;-66
2022/03/12 08:47:39;;;;;;;11.02;6.97;;;;;;;;;;5021377;28;20429;-66
2022/03/12 08:50:08;;;;;;;10.98;6.13;;;;;;;;;;5021218;28;20045;-66
2022/03/12 08:52:37;;;;;;;12.27;6.40;;;;;;;;;;5021475;28;20044;-68
2022/03/12 08:55:04;;;;;;;13.23;6.70;;;;;;;;;;5021383;28;20037;-68
2022/03/12 08:57:30;;;;;;;11.35;6.70;;;;;;;;;;5021327;28;21111;-68
2022/03/12 08:59:55;;;;;;;9.88;6.28;;;;;;;;;;5021358;28;20043;-68
2022/03/12 09:02:21;;;;;;;12.00;6.95;;;;;;;;;;5021888;28;20041;-68
2022/03/12 09:04:47;;;;;;;10.48;6.75;;;;;;;;;;5018598;28;20441;-66
2022/03/12 09:07:13;;;;;;;10.85;6.90;;;;;;;;;;5019666;28;20073;-68
2022/03/12 09:09:38;;;;;;;10.57;7.10;;;;;;;;;;5021570;28;20065;-68
2022/03/12 09:12:04;;;;;;;12.13;7.05;;;;;;;;;;5021007;28;20037;-69
2022/03/12 09:14:34;;;;;;;17.58;7.55;;;;;;;;;;5022360;28;20075;-68
2022/03/12 09:17:00;;;;;;;13.02;8.15;;;;;;;;;;5021702;28;20124;-67
2022/03/12 09:19:27;;;;;;;11.77;7.35;;;;;;;;;;5022397;28;20518;-66
2022/03/12 09:21:53;;;;;;;14.13;8.35;;;;;;;;;;5022770;28;20045;-68
2022/03/12 09:24:18;;;;;;;13.25;7.45;;;;;;;;;;5022039;28;20140;-69
2022/03/12 09:26:44;;;;;;;16.95;8.48;;;;;;;;;;5022638;28;20128;-68
2022/03/12 09:29:10;;;;;;;16.13;8.32;;;;;;;;;;5021838;28;20045;-67
2022/03/12 09:31:36;;;;;;;12.77;8.27;;;;;;;;;;5022612;28;20056;-66
2022/03/12 09:34:02;;;;;;;11.15;7.40;;;;;;;;;;5022448;28;20406;-67
2022/03/12 09:36:28;;;;;;;16.20;8.88;;;;;;;;;;5022563;28;20479;-65
2022/03/12 09:39:26;;;;;;;11.95;7.80;;;;;;;;;;5030290;28;20049;-67
2022/03/12 09:41:52;;;;;;;11.18;7.80;;;;;;;;;;5023525;28;20151;-67
2022/03/12 09:44:17;;;;;;;16.38;8.43;;;;;;;;;;5020442;28;20574;-67
2022/03/12 09:46:43;;;;;;;12.27;8.82;;;;;;;;;;5015398;28;20033;-67
2022/03/12 09:50:05;;;;;;;15.95;8.63;;;;;;;;;;5019583;28;20053;-68
2022/03/12 09:53:08;;;;;;;15.60;8.52;;;;;;;;;;5013195;28;20088;-66
2022/03/12 09:55:34;;;;;;;13.85;8.02;;;;;;;;;;5020023;28;20025;-67
2022/03/12 09:58:00;;;;;;;17.67;8.73;;;;;;;;;;5019462;28;20033;-67
2022/03/12 10:00:26;;;;;;;14.07;8.65;;;;;;;;;;5018031;28;20111;-68
2022/03/12 10:02:52;;;;;;;14.48;9.02;;;;;;;;;;5020209;28;20061;-69
2022/03/12 10:05:17;;;;;;;14.90;10.32;;;;;;;;;;5020416;28;20049;-68
2022/03/12 10:07:43;;;;;;;16.92;10.32;;;;;;;;;;5020421;28;20044;-69
2022/03/12 10:10:15;;;;;;;15.45;9.85;;;;;;;;;;5020669;28;20037;-67
2022/03/12 10:12:44;;;;;;;18.88;10.30;;;;;;;;;;5019769;28;20045;-68
2022/03/12 10:15:12;;;;;;;25.15;9.63;;;;;;;;;;5020017;28;20037;-68
2022/03/12 10:17:38;;;;;;;15.48;9.55;;;;;;;;;;5021016;28;20076;-70
2022/03/12 10:20:07;;;;;;;15.65;9.93;;;;;;;;;;5020059;28;20152;-68
2022/03/12 10:22:34;;;;;;;17.48;10.30;;;;;;;;;;5020158;28;20501;-69
2022/03/12 10:25:00;;;;;;;21.90;10.30;;;;;;;;;;5019510;28;20087;-68
2022/03/12 10:27:25;;;;;;;15.25;10.48;;;;;;;;;;5019828;28;20033;-68
2022/03/12 10:29:52;;;;;;;15.80;10.25;;;;;;;;;;5019662;28;20055;-68
2022/03/12 10:32:32;;;;;;;17.75;10.00;;;;;;;;;;5018663;28;20037;-67
2022/03/12 10:35:01;;;;;;;16.20;10.40;;;;;;;;;;5018153;28;20041;-69
2022/03/12 10:37:32;;;;;;;14.70;10.40;;;;;;;;;;5020146;28;20741;-67
2022/03/12 10:40:09;;;;;;;16.88;10.90;;;;;;;;;;5020172;28;20037;-69
2022/03/12 10:42:37;;;;;;;17.90;10.95;;;;;;;;;;5020607;28;20037;-68
2022/03/12 10:45:15;;;;;;;18.17;10.63;;;;;;;;;;5019235;28;20056;-67
2022/03/12 10:47:47;;;;;;;17.52;10.80;;;;;;;;;;5020198;28;20029;-68
2022/03/12 10:50:21;;;;;;;16.02;10.82;;;;;;;;;;5019341;28;20044;-69
2022/03/12 10:52:49;;;;;;;20.73;11.15;;;;;;;;;;5019490;28;20033;-69
2022/03/12 10:55:29;;;;;;;22.85;11.02;;;;;;;;;;5018610;28;20067;-68
2022/03/12 10:58:02;;;;;;;21.90;11.75;;;;;;;;;;5019811;28;20126;-68
2022/03/12 11:00:34;;;;;;;20.08;11.00;;;;;;;;;;5019929;28;20026;-68
2022/03/12 11:03:01;;;;;;;;;;;;;;;;;;5017631;28;20045;-69
2022/03/12 11:05:29;;;;;;;19.05;10.52;;;;;;;;;;5018523;28;19913;-69
2022/03/12 11:08:18;;;;;;;16.58;9.85;;;;;;;;;;5016963;28;20037;-67
2022/03/12 11:10:52;;;;;;;20.77;11.02;;;;;;;;;;5018673;28;20057;-70
2022/03/12 11:13:34;;;;;;;18.65;11.43;;;;;;;;;;5020419;28;20045;-68
2022/03/12 11:16:14;;;;;;;17.93;10.47;;;;;;;;;;5023162;28;20410;-69
2022/03/12 11:18:52;;;;;;;19.40;11.43;;;;;;;;;;5011622;28;20338;-68
2022/03/12 11:21:39;;;;;;;15.82;10.48;;;;;;;;;;5023461;28;20037;-68
2022/03/12 11:24:06;;;;;;;16.15;9.98;;;;;;;;;;5024230;28;20593;-70
2022/03/12 11:27:01;;;;;;;15.85;10.25;;;;;;;;;;5023194;28;20042;-68
2022/03/12 11:33:18;;;;;;;20.48;11.68;;;;;;;;;;5035076;28;20068;-65
2022/03/12 11:35:45;;;;;;;16.95;10.80;;;;;;;;;;5025600;28;20037;-66
2022/03/12 11:38:21;;;;;;;17.13;10.30;;;;;;;;;;5025550;28;20052;-66
2022/03/12 11:41:09;;;;;;;17.98;10.73;;;;;;;;;;5023886;28;20029;-67
2022/03/12 11:43:41;;;;;;;14.82;10.27;;;;;;;;;;5024474;28;20043;-67
2022/03/12 11:46:11;;;;;;;19.58;10.65;;;;;;;;;;5024392;28;20072;-68
2022/03/12 11:48:38;;;;;;;19.17;10.68;;;;;;;;;;5023608;28;20037;-67
2022/03/12 11:51:20;;;;;;;16.70;11.05;;;;;;;;;;5023582;28;20033;-67
2022/03/12 11:53:46;;;;;;;20.70;10.88;;;;;;;;;;5024125;28;20037;-67
2022/03/12 11:56:13;;;;;;;22.52;10.50;;;;;;;;;;5023847;28;20045;-68
2022/03/12 11:58:39;;;;;;;18.80;10.95;;;;;;;;;;5985609;22;20047;-68
2022/03/12 12:01:05;;;;;;;19.15;10.50;;;;;;;;;;5022219;28;20045;-69
2022/03/12 12:03:31;;;;;;;16.55;10.85;;;;;;;;;;5022659;28;20038;-69
2022/03/12 12:05:57;;;;;;;19.80;10.73;;;;;;;;;;5023380;28;20046;-69
2022/03/12 12:08:23;;;;;;;17.25;11.25;;;;;;;;;;5024068;28;20033;-69
2022/03/12 12:10:50;;;;;;;16.75;10.35;;;;;;;;;;5026892;28;20021;-68
2022/03/12 12:13:17;;;;;;;19.65;11.20;;;;;;;;;;5021791;28;20065;-69
2022/03/12 12:15:45;;;;;;;20.35;11.23;;;;;;;;;;5029053;28;20092;-68
2022/03/12 12:18:13;;;;;;;17.00;10.75;;;;;;;;;;5024461;28;20060;-69
2022/03/12 12:20:41;;;;;;;26.50;16.25;;;;;;;;;;5023310;28;20333;-68
2022/03/12 12:23:13;;;;;;;17.52;10.05;;;;;;;;;;5023333;28;20029;-68
2022/03/12 12:25:39;;;;;;;16.67;9.93;;;;;;;;;;5021500;28;20103;-67
2022/03/12 12:28:20;;;;;;;18.52;11.55;;;;;;;;;;5030512;28;20041;-69
2022/03/12 12:30:48;;;;;;;17.25;10.40;;;;;;;;;;5028333;28;20405;-68
2022/03/12 12:33:18;;;;;;;17.25;10.07;;;;;;;;;;5024629;28;20041;-67
2022/03/12 12:35:49;;;;;;;23.95;12.52;;;;;;;;;;5023731;28;20516;-68
2022/03/12 12:40:58;;;;;;;24.40;11.77;;;;;;;;;;5182310;23;20472;-69
2022/03/12 12:43:36;;;;;;;50.50;26.50;;;;;;;;;;5021015;28;20044;-68
2022/03/12 12:46:05;;;;;;;19.25;10.80;;;;;;;;;;5013797;28;20034;-68
2022/03/12 12:48:40;;;;;;;29.73;18.55;;;;;;;;;;5005630;28;20574;-70
2022/03/12 12:51:08;;;;;;;15.65;10.25;;;;;;;;;;5002355;28;20054;-69
2022/03/12 12:53:54;;;;;;;24.77;14.45;;;;;;;;;;5001863;28;20042;-69
2022/03/12 12:56:24;;;;;;;22.85;10.13;;;;;;;;;;5001251;28;20029;-69
2022/03/12 12:58:53;;;;;;;20.63;11.65;;;;;;;;;;5003810;28;20025;-69
2022/03/12 13:01:36;;;;;;;16.33;9.88;;;;;;;;;;5003861;28;20037;-68
2022/03/12 13:04:03;;;;;;;17.55;11.07;;;;;;;;;;5002526;28;20038;-69
2022/03/12 13:06:48;;;;;;;15.80;9.63;;;;;;;;;;5002877;28;20084;-68
2022/03/12 13:09:32;;;;;;;16.67;9.82;;;;;;;;;;4983558;28;20041;-70
2022/03/12 13:11:59;;;;;;;19.95;9.40;;;;;;;;;;5002590;28;20038;-66
2022/03/12 13:14:27;;;;;;;17.63;9.82;;;;;;;;;;5002224;28;20037;-69
2022/03/12 13:17:03;;;;;;;20.50;11.10;;;;;;;;;;5008418;28;20041;-68
2022/03/12 13:19:29;;;;;;;16.25;10.10;;;;;;;;;;5001616;28;20037;-68
2022/03/12 13:22:00;;;;;;;21.38;12.30;;;;;;;;;;5002090;28;20487;-68
2022/03/12 13:28:34;;;;;;;22.00;11.80;;;;;;;;;;5170388;22;20059;-68
2022/03/12 13:31:00;;;;;;;17.23;10.48;;;;;;;;;;4998738;28;20044;-70
2022/03/12 13:33:56;;;;;;;15.82;9.07;;;;;;;;;;5010222;28;20034;-69
2022/03/12 13:36:26;;;;;;;13.63;8.43;;;;;;;;;;5001417;28;20479;-68
2022/03/12 13:39:23;;;;;;;16.10;9.40;;;;;;;;;;5001960;28;20042;-69
2022/03/12 13:41:50;;;;;;;17.35;9.80;;;;;;;;;;4981905;28;20061;-68
2022/03/12 13:44:21;;;;;;;13.25;8.23;;;;;;;;;;4990122;28;20113;-69
2022/03/12 13:46:48;;;;;;;16.00;8.30;;;;;;;;;;4982641;28;20272;-68
2022/03/12 13:49:20;;;;;;;12.60;7.55;;;;;;;;;;4986750;28;20121;-69
2022/03/12 13:51:52;;;;;;;20.25;8.75;;;;;;;;;;4981843;28;20078;-68
2022/03/12 13:54:19;;;;;;;13.32;8.38;;;;;;;;;;4982312;28;20542;-69
2022/03/12 13:59:29;;;;;;;20.38;9.07;;;;;;;;;;5005763;23;20495;-69
2022/03/12 14:01:56;;;;;;;18.15;7.38;;;;;;;;;;5001264;28;20038;-68
2022/03/12 14:04:26;;;;;;;14.15;8.40;;;;;;;;;;4999769;28;20029;-68
2022/03/12 14:06:52;;;;;;;14.50;7.78;;;;;;;;;;5001802;28;20137;-68
2022/03/12 14:09:23;;;;;;;14.75;7.88;;;;;;;;;;4985395;28;20129;-69
2022/03/12 14:11:56;;;;;;;15.40;7.83;;;;;;;;;;4986980;28;20061;-69
2022/03/12 14:14:23;;;;;;;15.88;8.07;;;;;;;;;;4980862;28;20040;-68
2022/03/12 14:16:55;;;;;;;15.88;7.63;;;;;;;;;;4964629;28;20031;-68
2022/03/12 14:23:08;;;;;;;17.23;7.38;;;;;;;;;;4986497;28;20048;-69
2022/03/12 14:29:00;;;;;;;10.50;6.63;;;;;;;;;;4981803;28;20106;-67
2022/03/12 14:31:25;;;;;;;14.35;7.47;;;;;;;;;;4980554;28;20038;-68
2022/03/12 14:33:51;;;;;;;14.10;8.35;;;;;;;;;;4984112;28;20041;-69
2022/03/12 14:36:17;;;;;;;16.92;8.50;;;;;;;;;;4981890;28;20073;-68
2022/03/12 14:38:43;;;;;;;18.00;7.22;;;;;;;;;;4975840;28;20042;-68
2022/03/12 14:41:08;;;;;;;13.07;7.35;;;;;;;;;;4982704;28;20045;-66
2022/03/12 14:43:34;;;;;;;21.45;8.65;;;;;;;;;;4978944;28;20550;-67
2022/03/12 14:46:00;;;;;;;16.35;8.63;;;;;;;;;;4985194;28;20124;-66
2022/03/12 14:48:26;;;;;;;17.73;8.75;;;;;;;;;;4979975;28;20591;-68
2022/03/12 14:50:58;;;;;;;13.20;8.00;;;;;;;;;;4979463;28;20031;-69
2022/03/12 14:53:23;;;;;;;15.13;9.10;;;;;;;;;;4979651;28;20472;-68
2022/03/12 14:55:51;;;;;;;14.10;7.95;;;;;;;;;;4980206;28;20049;-67
2022/03/12 14:58:17;;;;;;;13.20;8.13;;;;;;;;;;4986290;28;20513;-67
2022/03/12 15:00:43;;;;;;;16.65;8.30;;;;;;;;;;4980188;28;20404;-67
2022/03/12 15:03:10;;;;;;;18.60;8.10;;;;;;;;;;4982909;28;20042;-67
2022/03/12 15:05:38;;;;;;;14.88;8.13;;;;;;;;;;4983266;28;20498;-68
2022/03/12 15:08:04;;;;;;;13.38;7.53;;;;;;;;;;4992069;28;20042;-69